Archival Weather

Aeroparque Jorge Newbery

Aeroparque Jorge Newbery, Argentina (SABE)

Report from: Saturday, May 14, 2022 10:00 PM -03
Current time: Sunday, June 26, 2022 1:37 PM -03

Current weather
Weather history
Weather forecast

Temperature14.0°C (57.2°F)
Dew point2.0°C (35.6°F)
Winds 3 kts (1.5 m/s, 3.5 mph) Vrb
Wind gusts 13 kts (6.7 m/s, 15 mph)
Winds variableWinds variable from East (100°) to West-Southwest (240°)
Clouds Sky clear
Altimeter30.12 in.Hg (1020 mB)
Relative humidity44 %
Density altitude-239 ft. (-73 m)
Remarks Ceiling and visibility OK
Corrected report
No significant changes expected in the next two hours
Flight conditions Visual Meteorological Conditions
Raw dataCOR SABE 150100Z 18003G13KT 100V240 CAVOK 14/02 Q1020 NOSIG RMK PP000
An error has occurred. This application may no longer respond until reloaded. Reload 🗙